sensor_id;sensor_type;location;lat;lon;timestamp;P1;durP1;ratioP1;P2;durP2;ratioP2
10827;SDS011;5467;59.334;13.512;2022-08-01T00:00:18;0.50;;;0.50;;
10827;SDS011;5467;59.334;13.512;2022-08-01T00:02:45;0.50;;;0.50;;
10827;SDS011;5467;59.334;13.512;2022-08-01T00:05:12;0.50;;;0.50;;
10827;SDS011;5467;59.334;13.512;2022-08-01T00:07:41;0.53;;;0.53;;
10827;SDS011;5467;59.334;13.512;2022-08-01T00:10:09;0.40;;;0.40;;
10827;SDS011;5467;59.334;13.512;2022-08-01T00:12:37;0.50;;;0.50;;
10827;SDS011;5467;59.334;13.512;2022-08-01T00:15:04;0.50;;;0.50;;
10827;SDS011;5467;59.334;13.512;2022-08-01T00:17:33;0.60;;;0.60;;
10827;SDS011;5467;59.334;13.512;2022-08-01T00:20:00;0.50;;;0.50;;
10827;SDS011;5467;59.334;13.512;2022-08-01T00:22:27;0.57;;;0.57;;
10827;SDS011;5467;59.334;13.512;2022-08-01T00:24:56;0.50;;;0.50;;
10827;SDS011;5467;59.334;13.512;2022-08-01T00:27:23;0.60;;;0.60;;
10827;SDS011;5467;59.334;13.512;2022-08-01T00:29:50;0.50;;;0.50;;
10827;SDS011;5467;59.334;13.512;2022-08-01T00:32:17;0.50;;;0.50;;
10827;SDS011;5467;59.334;13.512;2022-08-01T00:34:44;0.50;;;0.50;;
10827;SDS011;5467;59.334;13.512;2022-08-01T00:37:11;0.50;;;0.50;;
10827;SDS011;5467;59.334;13.512;2022-08-01T00:39:38;0.60;;;0.60;;
10827;SDS011;5467;59.334;13.512;2022-08-01T00:42:07;0.60;;;0.60;;
10827;SDS011;5467;59.334;13.512;2022-08-01T00:44:34;0.60;;;0.60;;
10827;SDS011;5467;59.334;13.512;2022-08-01T00:47:02;0.50;;;0.50;;
10827;SDS011;5467;59.334;13.512;2022-08-01T00:49:29;0.50;;;0.50;;
10827;SDS011;5467;59.334;13.512;2022-08-01T00:51:56;0.50;;;0.50;;
10827;SDS011;5467;59.334;13.512;2022-08-01T00:54:25;0.60;;;0.60;;
10827;SDS011;5467;59.334;13.512;2022-08-01T00:56:53;0.57;;;0.57;;
10827;SDS011;5467;59.334;13.512;2022-08-01T00:59:22;0.60;;;0.60;;
10827;SDS011;5467;59.334;13.512;2022-08-01T01:01:49;0.60;;;0.60;;
10827;SDS011;5467;59.334;13.512;2022-08-01T01:04:17;0.50;;;0.50;;
10827;SDS011;5467;59.334;13.512;2022-08-01T01:06:44;0.40;;;0.40;;
10827;SDS011;5467;59.334;13.512;2022-08-01T01:09:21;0.50;;;0.50;;
10827;SDS011;5467;59.334;13.512;2022-08-01T01:12:00;0.63;;;0.63;;
10827;SDS011;5467;59.334;13.512;2022-08-01T01:14:33;0.50;;;0.50;;
10827;SDS011;5467;59.334;13.512;2022-08-01T01:17:09;0.50;;;0.50;;
10827;SDS011;5467;59.334;13.512;2022-08-01T01:19:41;0.50;;;0.50;;
10827;SDS011;5467;59.334;13.512;2022-08-01T01:25:18;0.60;;;0.60;;
10827;SDS011;5467;59.334;13.512;2022-08-01T01:28:06;0.60;;;0.60;;
10827;SDS011;5467;59.334;13.512;2022-08-01T01:30:41;0.50;;;0.50;;
10827;SDS011;5467;59.334;13.512;2022-08-01T01:33:11;0.50;;;0.50;;
10827;SDS011;5467;59.334;13.512;2022-08-01T01:35:41;0.50;;;0.50;;
10827;SDS011;5467;59.334;13.512;2022-08-01T01:38:15;0.40;;;0.40;;
10827;SDS011;5467;59.334;13.512;2022-08-01T01:40:46;0.50;;;0.50;;
10827;SDS011;5467;59.334;13.512;2022-08-01T01:43:14;0.40;;;0.40;;
10827;SDS011;5467;59.334;13.512;2022-08-01T01:45:44;0.50;;;0.50;;
10827;SDS011;5467;59.334;13.512;2022-08-01T01:48:13;0.50;;;0.50;;
10827;SDS011;5467;59.334;13.512;2022-08-01T01:50:43;0.40;;;0.40;;
10827;SDS011;5467;59.334;13.512;2022-08-01T01:53:13;0.40;;;0.40;;
10827;SDS011;5467;59.334;13.512;2022-08-01T01:55:44;0.40;;;0.40;;
10827;SDS011;5467;59.334;13.512;2022-08-01T01:58:13;0.30;;;0.30;;
10827;SDS011;5467;59.334;13.512;2022-08-01T02:00:42;0.30;;;0.30;;
10827;SDS011;5467;59.334;13.512;2022-08-01T02:03:12;0.30;;;0.30;;
10827;SDS011;5467;59.334;13.512;2022-08-01T02:05:40;0.30;;;0.30;;
10827;SDS011;5467;59.334;13.512;2022-08-01T02:08:09;0.30;;;0.30;;
10827;SDS011;5467;59.334;13.512;2022-08-01T02:10:38;0.30;;;0.30;;
10827;SDS011;5467;59.334;13.512;2022-08-01T02:13:06;0.50;;;0.50;;
10827;SDS011;5467;59.334;13.512;2022-08-01T02:15:36;0.43;;;0.43;;
10827;SDS011;5467;59.334;13.512;2022-08-01T02:18:05;0.40;;;0.40;;
10827;SDS011;5467;59.334;13.512;2022-08-01T02:20:33;0.30;;;0.30;;
10827;SDS011;5467;59.334;13.512;2022-08-01T02:23:04;0.30;;;0.30;;
10827;SDS011;5467;59.334;13.512;2022-08-01T02:25:36;0.40;;;0.40;;
10827;SDS011;5467;59.334;13.512;2022-08-01T02:28:06;0.40;;;0.40;;
10827;SDS011;5467;59.334;13.512;2022-08-01T02:30:37;0.30;;;0.30;;
10827;SDS011;5467;59.334;13.512;2022-08-01T02:33:11;0.53;;;0.53;;
10827;SDS011;5467;59.334;13.512;2022-08-01T02:35:43;0.33;;;0.33;;
10827;SDS011;5467;59.334;13.512;2022-08-01T02:38:13;0.40;;;0.37;;
10827;SDS011;5467;59.334;13.512;2022-08-01T02:40:41;0.50;;;0.50;;
10827;SDS011;5467;59.334;13.512;2022-08-01T02:43:12;0.30;;;0.30;;
10827;SDS011;5467;59.334;13.512;2022-08-01T02:45:42;0.40;;;0.40;;
10827;SDS011;5467;59.334;13.512;2022-08-01T02:48:15;0.20;;;0.20;;
10827;SDS011;5467;59.334;13.512;2022-08-01T02:50:45;0.40;;;0.40;;
10827;SDS011;5467;59.334;13.512;2022-08-01T02:53:14;0.50;;;0.50;;
10827;SDS011;5467;59.334;13.512;2022-08-01T02:55:45;0.40;;;0.40;;
10827;SDS011;5467;59.334;13.512;2022-08-01T02:58:14;0.30;;;0.30;;
10827;SDS011;5467;59.334;13.512;2022-08-01T03:00:42;0.30;;;0.30;;
10827;SDS011;5467;59.334;13.512;2022-08-01T03:03:11;0.30;;;0.30;;
10827;SDS011;5467;59.334;13.512;2022-08-01T03:05:40;0.33;;;0.33;;
10827;SDS011;5467;59.334;13.512;2022-08-01T03:08:11;0.37;;;0.37;;
10827;SDS011;5467;59.334;13.512;2022-08-01T03:10:40;0.40;;;0.40;;
10827;SDS011;5467;59.334;13.512;2022-08-01T03:13:09;0.30;;;0.30;;
10827;SDS011;5467;59.334;13.512;2022-08-01T03:15:38;0.30;;;0.30;;
10827;SDS011;5467;59.334;13.512;2022-08-01T03:18:08;0.30;;;0.30;;
10827;SDS011;5467;59.334;13.512;2022-08-01T03:20:37;0.40;;;0.40;;
10827;SDS011;5467;59.334;13.512;2022-08-01T03:23:06;0.30;;;0.30;;
10827;SDS011;5467;59.334;13.512;2022-08-01T03:25:36;0.30;;;0.30;;
10827;SDS011;5467;59.334;13.512;2022-08-01T03:28:06;0.77;;;0.40;;
10827;SDS011;5467;59.334;13.512;2022-08-01T03:30:36;0.30;;;0.30;;
10827;SDS011;5467;59.334;13.512;2022-08-01T03:33:05;0.23;;;0.23;;
10827;SDS011;5467;59.334;13.512;2022-08-01T03:35:33;0.30;;;0.30;;
10827;SDS011;5467;59.334;13.512;2022-08-01T03:38:03;0.30;;;0.30;;
10827;SDS011;5467;59.334;13.512;2022-08-01T03:40:35;0.30;;;0.30;;
10827;SDS011;5467;59.334;13.512;2022-08-01T03:43:07;0.40;;;0.40;;
10827;SDS011;5467;59.334;13.512;2022-08-01T03:45:38;0.27;;;0.27;;
10827;SDS011;5467;59.334;13.512;2022-08-01T03:48:09;0.30;;;0.30;;
10827;SDS011;5467;59.334;13.512;2022-08-01T03:50:39;0.20;;;0.20;;
10827;SDS011;5467;59.334;13.512;2022-08-01T03:53:10;0.20;;;0.20;;
10827;SDS011;5467;59.334;13.512;2022-08-01T03:55:39;0.27;;;0.27;;
10827;SDS011;5467;59.334;13.512;2022-08-01T03:58:09;0.30;;;0.30;;
10827;SDS011;5467;59.334;13.512;2022-08-01T04:00:38;0.30;;;0.30;;
10827;SDS011;5467;59.334;13.512;2022-08-01T04:03:08;0.30;;;0.30;;
10827;SDS011;5467;59.334;13.512;2022-08-01T04:05:36;0.30;;;0.30;;
10827;SDS011;5467;59.334;13.512;2022-08-01T04:08:03;0.30;;;0.30;;
10827;SDS011;5467;59.334;13.512;2022-08-01T04:10:32;0.20;;;0.20;;
10827;SDS011;5467;59.334;13.512;2022-08-01T04:12:59;0.40;;;0.40;;
10827;SDS011;5467;59.334;13.512;2022-08-01T04:15:26;0.20;;;0.20;;
10827;SDS011;5467;59.334;13.512;2022-08-01T04:17:53;0.27;;;0.27;;
10827;SDS011;5467;59.334;13.512;2022-08-01T04:20:20;0.30;;;0.30;;
10827;SDS011;5467;59.334;13.512;2022-08-01T04:22:47;0.20;;;0.20;;
10827;SDS011;5467;59.334;13.512;2022-08-01T04:25:15;0.20;;;0.20;;
10827;SDS011;5467;59.334;13.512;2022-08-01T04:27:49;0.20;;;0.20;;
10827;SDS011;5467;59.334;13.512;2022-08-01T04:30:19;0.27;;;0.27;;
10827;SDS011;5467;59.334;13.512;2022-08-01T04:32:49;0.20;;;0.20;;
10827;SDS011;5467;59.334;13.512;2022-08-01T04:35:19;0.27;;;0.27;;
10827;SDS011;5467;59.334;13.512;2022-08-01T04:37:47;0.30;;;0.30;;
10827;SDS011;5467;59.334;13.512;2022-08-01T04:40:16;0.20;;;0.20;;
10827;SDS011;5467;59.334;13.512;2022-08-01T04:42:45;0.20;;;0.20;;
10827;SDS011;5467;59.334;13.512;2022-08-01T04:45:15;0.20;;;0.20;;
10827;SDS011;5467;59.334;13.512;2022-08-01T04:47:42;0.20;;;0.20;;
10827;SDS011;5467;59.334;13.512;2022-08-01T04:50:10;0.20;;;0.20;;
10827;SDS011;5467;59.334;13.512;2022-08-01T04:52:38;0.20;;;0.20;;
10827;SDS011;5467;59.334;13.512;2022-08-01T04:55:07;0.20;;;0.20;;
10827;SDS011;5467;59.334;13.512;2022-08-01T04:57:36;0.27;;;0.27;;
10827;SDS011;5467;59.334;13.512;2022-08-01T05:00:06;0.27;;;0.27;;
10827;SDS011;5467;59.334;13.512;2022-08-01T05:02:37;0.20;;;0.20;;
10827;SDS011;5467;59.334;13.512;2022-08-01T05:05:04;0.20;;;0.20;;
10827;SDS011;5467;59.334;13.512;2022-08-01T05:07:32;0.30;;;0.30;;
10827;SDS011;5467;59.334;13.512;2022-08-01T05:10:01;0.20;;;0.20;;
10827;SDS011;5467;59.334;13.512;2022-08-01T05:12:28;0.40;;;0.33;;
10827;SDS011;5467;59.334;13.512;2022-08-01T05:14:56;0.30;;;0.30;;
10827;SDS011;5467;59.334;13.512;2022-08-01T05:17:23;0.30;;;0.30;;
10827;SDS011;5467;59.334;13.512;2022-08-01T05:19:52;0.30;;;0.30;;
10827;SDS011;5467;59.334;13.512;2022-08-01T05:22:19;0.30;;;0.30;;
10827;SDS011;5467;59.334;13.512;2022-08-01T05:24:47;0.20;;;0.20;;
10827;SDS011;5467;59.334;13.512;2022-08-01T05:27:14;0.30;;;0.30;;
10827;SDS011;5467;59.334;13.512;2022-08-01T05:29:41;0.20;;;0.20;;
10827;SDS011;5467;59.334;13.512;2022-08-01T05:32:08;0.23;;;0.23;;
10827;SDS011;5467;59.334;13.512;2022-08-01T05:34:35;0.20;;;0.20;;
10827;SDS011;5467;59.334;13.512;2022-08-01T05:37:03;0.23;;;0.23;;
10827;SDS011;5467;59.334;13.512;2022-08-01T05:39:32;0.20;;;0.20;;
10827;SDS011;5467;59.334;13.512;2022-08-01T05:41:59;0.30;;;0.30;;
10827;SDS011;5467;59.334;13.512;2022-08-01T05:44:26;0.20;;;0.20;;
10827;SDS011;5467;59.334;13.512;2022-08-01T05:46:53;0.20;;;0.20;;
10827;SDS011;5467;59.334;13.512;2022-08-01T05:49:20;0.20;;;0.20;;
10827;SDS011;5467;59.334;13.512;2022-08-01T05:51:47;0.30;;;0.30;;
10827;SDS011;5467;59.334;13.512;2022-08-01T05:54:15;0.30;;;0.30;;
10827;SDS011;5467;59.334;13.512;2022-08-01T05:56:42;0.20;;;0.20;;
10827;SDS011;5467;59.334;13.512;2022-08-01T05:59:09;0.20;;;0.20;;
10827;SDS011;5467;59.334;13.512;2022-08-01T06:01:36;0.30;;;0.30;;
10827;SDS011;5467;59.334;13.512;2022-08-01T06:04:03;0.30;;;0.30;;
10827;SDS011;5467;59.334;13.512;2022-08-01T06:06:30;0.23;;;0.23;;
10827;SDS011;5467;59.334;13.512;2022-08-01T06:08:57;0.20;;;0.20;;
10827;SDS011;5467;59.334;13.512;2022-08-01T06:11:26;0.43;;;0.43;;
10827;SDS011;5467;59.334;13.512;2022-08-01T06:13:53;0.30;;;0.30;;
10827;SDS011;5467;59.334;13.512;2022-08-01T06:16:20;0.30;;;0.30;;
10827;SDS011;5467;59.334;13.512;2022-08-01T06:18:47;0.20;;;0.20;;
10827;SDS011;5467;59.334;13.512;2022-08-01T06:21:14;0.30;;;0.30;;
10827;SDS011;5467;59.334;13.512;2022-08-01T06:23:41;0.20;;;0.20;;
10827;SDS011;5467;59.334;13.512;2022-08-01T06:26:08;0.30;;;0.30;;
10827;SDS011;5467;59.334;13.512;2022-08-01T06:28:37;0.23;;;0.23;;
10827;SDS011;5467;59.334;13.512;2022-08-01T06:31:05;0.20;;;0.20;;
10827;SDS011;5467;59.334;13.512;2022-08-01T06:33:32;0.20;;;0.20;;
10827;SDS011;5467;59.334;13.512;2022-08-01T06:35:59;0.30;;;0.30;;
10827;SDS011;5467;59.334;13.512;2022-08-01T06:38:26;0.20;;;0.20;;
10827;SDS011;5467;59.334;13.512;2022-08-01T06:40:53;0.20;;;0.20;;
10827;SDS011;5467;59.334;13.512;2022-08-01T06:43:20;0.20;;;0.20;;
10827;SDS011;5467;59.334;13.512;2022-08-01T06:45:49;0.20;;;0.20;;
10827;SDS011;5467;59.334;13.512;2022-08-01T06:48:16;0.20;;;0.20;;
10827;SDS011;5467;59.334;13.512;2022-08-01T06:50:43;0.20;;;0.20;;
10827;SDS011;5467;59.334;13.512;2022-08-01T06:53:10;0.20;;;0.20;;
10827;SDS011;5467;59.334;13.512;2022-08-01T06:55:37;0.20;;;0.20;;
10827;SDS011;5467;59.334;13.512;2022-08-01T06:58:04;0.20;;;0.20;;
10827;SDS011;5467;59.334;13.512;2022-08-01T07:00:31;0.27;;;0.27;;
10827;SDS011;5467;59.334;13.512;2022-08-01T07:02:59;0.20;;;0.20;;
10827;SDS011;5467;59.334;13.512;2022-08-01T07:05:27;0.20;;;0.20;;
10827;SDS011;5467;59.334;13.512;2022-08-01T07:07:56;0.20;;;0.20;;
10827;SDS011;5467;59.334;13.512;2022-08-01T07:10:23;0.30;;;0.30;;
10827;SDS011;5467;59.334;13.512;2022-08-01T07:12:50;0.30;;;0.30;;
10827;SDS011;5467;59.334;13.512;2022-08-01T07:15:17;0.20;;;0.20;;
10827;SDS011;5467;59.334;13.512;2022-08-01T07:17:47;0.30;;;0.30;;
10827;SDS011;5467;59.334;13.512;2022-08-01T07:20:15;0.20;;;0.20;;
10827;SDS011;5467;59.334;13.512;2022-08-01T07:22:42;0.30;;;0.30;;
10827;SDS011;5467;59.334;13.512;2022-08-01T07:25:09;0.27;;;0.27;;
10827;SDS011;5467;59.334;13.512;2022-08-01T07:27:36;0.30;;;0.30;;
10827;SDS011;5467;59.334;13.512;2022-08-01T07:30:04;0.20;;;0.20;;
10827;SDS011;5467;59.334;13.512;2022-08-01T07:32:32;0.27;;;0.27;;
10827;SDS011;5467;59.334;13.512;2022-08-01T07:35:00;0.27;;;0.27;;
10827;SDS011;5467;59.334;13.512;2022-08-01T07:37:28;0.27;;;0.27;;
10827;SDS011;5467;59.334;13.512;2022-08-01T07:39:55;0.30;;;0.30;;
10827;SDS011;5467;59.334;13.512;2022-08-01T07:42:22;0.20;;;0.20;;
10827;SDS011;5467;59.334;13.512;2022-08-01T07:44:49;0.20;;;0.20;;
10827;SDS011;5467;59.334;13.512;2022-08-01T07:47:22;0.20;;;0.20;;
10827;SDS011;5467;59.334;13.512;2022-08-01T07:49:50;0.27;;;0.27;;
10827;SDS011;5467;59.334;13.512;2022-08-01T07:52:17;0.20;;;0.20;;
10827;SDS011;5467;59.334;13.512;2022-08-01T07:54:46;0.20;;;0.20;;
10827;SDS011;5467;59.334;13.512;2022-08-01T07:57:13;0.30;;;0.30;;
10827;SDS011;5467;59.334;13.512;2022-08-01T07:59:40;0.20;;;0.20;;
10827;SDS011;5467;59.334;13.512;2022-08-01T08:02:07;0.20;;;0.20;;
10827;SDS011;5467;59.334;13.512;2022-08-01T08:04:34;0.20;;;0.20;;
10827;SDS011;5467;59.334;13.512;2022-08-01T08:07:01;0.20;;;0.20;;
10827;SDS011;5467;59.334;13.512;2022-08-01T08:09:28;0.30;;;0.30;;
10827;SDS011;5467;59.334;13.512;2022-08-01T08:11:57;0.20;;;0.20;;
10827;SDS011;5467;59.334;13.512;2022-08-01T08:14:24;0.20;;;0.20;;
10827;SDS011;5467;59.334;13.512;2022-08-01T08:16:51;0.30;;;0.30;;
10827;SDS011;5467;59.334;13.512;2022-08-01T08:19:18;0.23;;;0.23;;
10827;SDS011;5467;59.334;13.512;2022-08-01T08:21:45;0.20;;;0.20;;
10827;SDS011;5467;59.334;13.512;2022-08-01T08:24:12;0.30;;;0.30;;
10827;SDS011;5467;59.334;13.512;2022-08-01T08:26:50;0.20;;;0.20;;
10827;SDS011;5467;59.334;13.512;2022-08-01T08:29:21;0.20;;;0.20;;
10827;SDS011;5467;59.334;13.512;2022-08-01T08:31:48;0.30;;;0.30;;
10827;SDS011;5467;59.334;13.512;2022-08-01T08:34:16;0.20;;;0.20;;
10827;SDS011;5467;59.334;13.512;2022-08-01T08:36:43;0.20;;;0.20;;
10827;SDS011;5467;59.334;13.512;2022-08-01T08:39:10;0.30;;;0.30;;
10827;SDS011;5467;59.334;13.512;2022-08-01T08:41:37;0.30;;;0.30;;
10827;SDS011;5467;59.334;13.512;2022-08-01T08:44:04;0.30;;;0.30;;
10827;SDS011;5467;59.334;13.512;2022-08-01T08:46:35;0.20;;;0.20;;
10827;SDS011;5467;59.334;13.512;2022-08-01T08:49:07;0.20;;;0.20;;
10827;SDS011;5467;59.334;13.512;2022-08-01T08:51:36;0.30;;;0.30;;
10827;SDS011;5467;59.334;13.512;2022-08-01T08:54:05;0.30;;;0.30;;
10827;SDS011;5467;59.334;13.512;2022-08-01T08:56:33;0.30;;;0.30;;
10827;SDS011;5467;59.334;13.512;2022-08-01T08:59:02;0.30;;;0.30;;
10827;SDS011;5467;59.334;13.512;2022-08-01T09:01:30;0.20;;;0.20;;
10827;SDS011;5467;59.334;13.512;2022-08-01T09:04:01;0.30;;;0.30;;
10827;SDS011;5467;59.334;13.512;2022-08-01T09:06:29;0.30;;;0.30;;
10827;SDS011;5467;59.334;13.512;2022-08-01T09:08:57;0.40;;;0.40;;
10827;SDS011;5467;59.334;13.512;2022-08-01T09:11:24;0.40;;;0.40;;
10827;SDS011;5467;59.334;13.512;2022-08-01T09:14:01;0.33;;;0.33;;
10827;SDS011;5467;59.334;13.512;2022-08-01T09:16:34;0.20;;;0.20;;
10827;SDS011;5467;59.334;13.512;2022-08-01T09:19:13;0.37;;;0.37;;
10827;SDS011;5467;59.334;13.512;2022-08-01T09:21:55;0.40;;;0.40;;
10827;SDS011;5467;59.334;13.512;2022-08-01T09:24:24;0.40;;;0.40;;
10827;SDS011;5467;59.334;13.512;2022-08-01T09:26:52;0.40;;;0.40;;
10827;SDS011;5467;59.334;13.512;2022-08-01T09:29:22;0.30;;;0.30;;
10827;SDS011;5467;59.334;13.512;2022-08-01T09:31:49;0.30;;;0.30;;
10827;SDS011;5467;59.334;13.512;2022-08-01T09:34:23;0.30;;;0.30;;
10827;SDS011;5467;59.334;13.512;2022-08-01T09:36:52;0.30;;;0.30;;
10827;SDS011;5467;59.334;13.512;2022-08-01T09:39:21;0.40;;;0.40;;
10827;SDS011;5467;59.334;13.512;2022-08-01T09:41:49;0.40;;;0.40;;
10827;SDS011;5467;59.334;13.512;2022-08-01T09:44:17;0.40;;;0.40;;
10827;SDS011;5467;59.334;13.512;2022-08-01T09:46:48;0.30;;;0.30;;
10827;SDS011;5467;59.334;13.512;2022-08-01T09:49:30;0.40;;;0.40;;
10827;SDS011;5467;59.334;13.512;2022-08-01T09:51:59;0.40;;;0.40;;
10827;SDS011;5467;59.334;13.512;2022-08-01T09:54:36;0.30;;;0.30;;
10827;SDS011;5467;59.334;13.512;2022-08-01T09:57:07;0.40;;;0.40;;
10827;SDS011;5467;59.334;13.512;2022-08-01T09:59:40;0.30;;;0.30;;
10827;SDS011;5467;59.334;13.512;2022-08-01T10:02:09;0.40;;;0.40;;
10827;SDS011;5467;59.334;13.512;2022-08-01T10:04:46;0.40;;;0.40;;
10827;SDS011;5467;59.334;13.512;2022-08-01T10:07:14;0.40;;;0.40;;
10827;SDS011;5467;59.334;13.512;2022-08-01T10:09:41;0.40;;;0.40;;
10827;SDS011;5467;59.334;13.512;2022-08-01T10:12:10;0.30;;;0.30;;
10827;SDS011;5467;59.334;13.512;2022-08-01T10:14:38;0.40;;;0.40;;
10827;SDS011;5467;59.334;13.512;2022-08-01T10:17:08;0.40;;;0.40;;
10827;SDS011;5467;59.334;13.512;2022-08-01T10:19:37;0.40;;;0.40;;
10827;SDS011;5467;59.334;13.512;2022-08-01T10:22:09;0.40;;;0.40;;
10827;SDS011;5467;59.334;13.512;2022-08-01T10:24:39;0.50;;;0.50;;
10827;SDS011;5467;59.334;13.512;2022-08-01T10:27:07;0.50;;;0.50;;
10827;SDS011;5467;59.334;13.512;2022-08-01T10:29:36;0.47;;;0.47;;
10827;SDS011;5467;59.334;13.512;2022-08-01T10:32:07;0.50;;;0.50;;
10827;SDS011;5467;59.334;13.512;2022-08-01T10:34:35;0.40;;;0.40;;
10827;SDS011;5467;59.334;13.512;2022-08-01T10:37:03;0.40;;;0.40;;
10827;SDS011;5467;59.334;13.512;2022-08-01T10:39:32;0.50;;;0.50;;
10827;SDS011;5467;59.334;13.512;2022-08-01T10:42:00;0.50;;;0.50;;
10827;SDS011;5467;59.334;13.512;2022-08-01T10:44:29;0.43;;;0.43;;
10827;SDS011;5467;59.334;13.512;2022-08-01T10:46:59;0.40;;;0.40;;
10827;SDS011;5467;59.334;13.512;2022-08-01T10:49:30;0.43;;;0.43;;
10827;SDS011;5467;59.334;13.512;2022-08-01T10:52:01;0.50;;;0.50;;
10827;SDS011;5467;59.334;13.512;2022-08-01T10:54:28;0.40;;;0.40;;
10827;SDS011;5467;59.334;13.512;2022-08-01T10:57:05;0.60;;;0.60;;
10827;SDS011;5467;59.334;13.512;2022-08-01T10:59:32;0.60;;;0.60;;
10827;SDS011;5467;59.334;13.512;2022-08-01T11:02:00;0.50;;;0.50;;
10827;SDS011;5467;59.334;13.512;2022-08-01T11:04:32;0.50;;;0.50;;
10827;SDS011;5467;59.334;13.512;2022-08-01T11:07:06;0.40;;;0.40;;
10827;SDS011;5467;59.334;13.512;2022-08-01T11:09:38;0.50;;;0.50;;
10827;SDS011;5467;59.334;13.512;2022-08-01T11:12:09;0.40;;;0.40;;
10827;SDS011;5467;59.334;13.512;2022-08-01T11:17:49;0.50;;;0.50;;
10827;SDS011;5467;59.334;13.512;2022-08-01T11:20:17;0.50;;;0.50;;
10827;SDS011;5467;59.334;13.512;2022-08-01T11:31:42;0.50;;;0.50;;
10827;SDS011;5467;59.334;13.512;2022-08-01T11:34:09;0.60;;;0.60;;
10827;SDS011;5467;59.334;13.512;2022-08-01T11:36:36;0.60;;;0.60;;
10827;SDS011;5467;59.334;13.512;2022-08-01T11:39:10;0.60;;;0.60;;
10827;SDS011;5467;59.334;13.512;2022-08-01T11:41:42;0.60;;;0.60;;
10827;SDS011;5467;59.334;13.512;2022-08-01T11:44:11;0.70;;;0.70;;
10827;SDS011;5467;59.334;13.512;2022-08-01T11:46:48;0.70;;;0.70;;
10827;SDS011;5467;59.334;13.512;2022-08-01T11:49:24;0.60;;;0.60;;
10827;SDS011;5467;59.334;13.512;2022-08-01T11:52:02;0.70;;;0.70;;
10827;SDS011;5467;59.334;13.512;2022-08-01T11:54:32;0.60;;;0.60;;
10827;SDS011;5467;59.334;13.512;2022-08-01T11:57:02;0.60;;;0.60;;
10827;SDS011;5467;59.334;13.512;2022-08-01T11:59:35;0.60;;;0.60;;
10827;SDS011;5467;59.334;13.512;2022-08-01T12:02:05;0.60;;;0.60;;
10827;SDS011;5467;59.334;13.512;2022-08-01T12:04:45;0.60;;;0.60;;
10827;SDS011;5467;59.334;13.512;2022-08-01T12:07:13;0.60;;;0.60;;
10827;SDS011;5467;59.334;13.512;2022-08-01T12:09:40;0.60;;;0.60;;
10827;SDS011;5467;59.334;13.512;2022-08-01T12:12:08;0.60;;;0.60;;
10827;SDS011;5467;59.334;13.512;2022-08-01T12:14:35;0.50;;;0.50;;
10827;SDS011;5467;59.334;13.512;2022-08-01T12:17:04;0.60;;;0.60;;
10827;SDS011;5467;59.334;13.512;2022-08-01T12:19:31;0.60;;;0.60;;
10827;SDS011;5467;59.334;13.512;2022-08-01T12:22:05;0.60;;;0.60;;
10827;SDS011;5467;59.334;13.512;2022-08-01T12:24:33;0.60;;;0.60;;
10827;SDS011;5467;59.334;13.512;2022-08-01T12:27:00;0.60;;;0.60;;
10827;SDS011;5467;59.334;13.512;2022-08-01T12:29:31;0.60;;;0.60;;
10827;SDS011;5467;59.334;13.512;2022-08-01T12:31:59;0.60;;;0.60;;
10827;SDS011;5467;59.334;13.512;2022-08-01T12:34:28;0.50;;;0.50;;
10827;SDS011;5467;59.334;13.512;2022-08-01T12:36:59;0.50;;;0.50;;
10827;SDS011;5467;59.334;13.512;2022-08-01T12:39:33;0.60;;;0.60;;
10827;SDS011;5467;59.334;13.512;2022-08-01T12:42:01;0.60;;;0.60;;
10827;SDS011;5467;59.334;13.512;2022-08-01T12:44:31;0.60;;;0.60;;
10827;SDS011;5467;59.334;13.512;2022-08-01T12:46:59;0.60;;;0.60;;
10827;SDS011;5467;59.334;13.512;2022-08-01T12:49:29;0.60;;;0.60;;
10827;SDS011;5467;59.334;13.512;2022-08-01T12:51:56;0.60;;;0.60;;
10827;SDS011;5467;59.334;13.512;2022-08-01T12:54:24;0.60;;;0.60;;
10827;SDS011;5467;59.334;13.512;2022-08-01T12:56:51;0.70;;;0.70;;
10827;SDS011;5467;59.334;13.512;2022-08-01T12:59:19;0.60;;;0.60;;
10827;SDS011;5467;59.334;13.512;2022-08-01T13:01:49;0.60;;;0.60;;
10827;SDS011;5467;59.334;13.512;2022-08-01T13:04:16;0.70;;;0.70;;
10827;SDS011;5467;59.334;13.512;2022-08-01T13:06:44;0.67;;;0.67;;
10827;SDS011;5467;59.334;13.512;2022-08-01T13:09:10;0.60;;;0.60;;
10827;SDS011;5467;59.334;13.512;2022-08-01T13:11:38;0.60;;;0.60;;
10827;SDS011;5467;59.334;13.512;2022-08-01T13:14:06;0.60;;;0.60;;
10827;SDS011;5467;59.334;13.512;2022-08-01T13:16:44;0.60;;;0.60;;
10827;SDS011;5467;59.334;13.512;2022-08-01T13:19:13;0.60;;;0.60;;
10827;SDS011;5467;59.334;13.512;2022-08-01T13:21:54;0.70;;;0.70;;
10827;SDS011;5467;59.334;13.512;2022-08-01T13:24:25;0.60;;;0.60;;
10827;SDS011;5467;59.334;13.512;2022-08-01T13:26:54;0.60;;;0.60;;
10827;SDS011;5467;59.334;13.512;2022-08-01T13:29:28;0.67;;;0.67;;
10827;SDS011;5467;59.334;13.512;2022-08-01T13:31:57;0.60;;;0.60;;
10827;SDS011;5467;59.334;13.512;2022-08-01T13:34:30;0.70;;;0.70;;
10827;SDS011;5467;59.334;13.512;2022-08-01T13:37:00;0.70;;;0.70;;
10827;SDS011;5467;59.334;13.512;2022-08-01T13:39:28;0.60;;;0.60;;
10827;SDS011;5467;59.334;13.512;2022-08-01T13:42:07;0.60;;;0.60;;
10827;SDS011;5467;59.334;13.512;2022-08-01T13:44:35;0.70;;;0.70;;
10827;SDS011;5467;59.334;13.512;2022-08-01T13:47:02;0.70;;;0.70;;
10827;SDS011;5467;59.334;13.512;2022-08-01T13:49:29;0.60;;;0.60;;
10827;SDS011;5467;59.334;13.512;2022-08-01T13:51:57;0.70;;;0.70;;
10827;SDS011;5467;59.334;13.512;2022-08-01T13:54:25;0.70;;;0.70;;
10827;SDS011;5467;59.334;13.512;2022-08-01T13:56:52;0.60;;;0.60;;
10827;SDS011;5467;59.334;13.512;2022-08-01T13:59:20;0.70;;;0.70;;
10827;SDS011;5467;59.334;13.512;2022-08-01T14:01:47;0.70;;;0.70;;
10827;SDS011;5467;59.334;13.512;2022-08-01T14:04:14;0.70;;;0.70;;
10827;SDS011;5467;59.334;13.512;2022-08-01T14:06:41;0.60;;;0.60;;
10827;SDS011;5467;59.334;13.512;2022-08-01T14:09:09;0.63;;;0.63;;
10827;SDS011;5467;59.334;13.512;2022-08-01T14:11:37;0.70;;;0.70;;
10827;SDS011;5467;59.334;13.512;2022-08-01T14:14:04;0.70;;;0.70;;
10827;SDS011;5467;59.334;13.512;2022-08-01T14:16:31;0.70;;;0.70;;
10827;SDS011;5467;59.334;13.512;2022-08-01T14:18:59;0.77;;;0.77;;
10827;SDS011;5467;59.334;13.512;2022-08-01T14:21:26;0.70;;;0.70;;
10827;SDS011;5467;59.334;13.512;2022-08-01T14:23:53;0.80;;;0.80;;
10827;SDS011;5467;59.334;13.512;2022-08-01T14:26:20;0.70;;;0.70;;
10827;SDS011;5467;59.334;13.512;2022-08-01T14:28:48;0.70;;;0.70;;
10827;SDS011;5467;59.334;13.512;2022-08-01T14:31:15;0.70;;;0.70;;
10827;SDS011;5467;59.334;13.512;2022-08-01T14:33:42;0.70;;;0.70;;
10827;SDS011;5467;59.334;13.512;2022-08-01T14:36:09;0.70;;;0.70;;
10827;SDS011;5467;59.334;13.512;2022-08-01T14:38:36;0.70;;;0.70;;
10827;SDS011;5467;59.334;13.512;2022-08-01T14:41:03;0.70;;;0.70;;
10827;SDS011;5467;59.334;13.512;2022-08-01T14:43:31;0.70;;;0.70;;
10827;SDS011;5467;59.334;13.512;2022-08-01T14:45:59;0.70;;;0.70;;
10827;SDS011;5467;59.334;13.512;2022-08-01T14:48:28;0.70;;;0.70;;
10827;SDS011;5467;59.334;13.512;2022-08-01T14:50:55;0.70;;;0.70;;
10827;SDS011;5467;59.334;13.512;2022-08-01T14:53:22;0.70;;;0.70;;
10827;SDS011;5467;59.334;13.512;2022-08-01T14:55:49;0.60;;;0.60;;
10827;SDS011;5467;59.334;13.512;2022-08-01T14:58:16;0.60;;;0.60;;
10827;SDS011;5467;59.334;13.512;2022-08-01T15:00:43;0.70;;;0.70;;
10827;SDS011;5467;59.334;13.512;2022-08-01T15:03:12;0.60;;;0.60;;
10827;SDS011;5467;59.334;13.512;2022-08-01T15:05:39;0.60;;;0.60;;
10827;SDS011;5467;59.334;13.512;2022-08-01T15:08:06;0.60;;;0.60;;
10827;SDS011;5467;59.334;13.512;2022-08-01T15:10:33;0.60;;;0.60;;
10827;SDS011;5467;59.334;13.512;2022-08-01T15:13:00;0.60;;;0.60;;